Novaya Igirma, Russia
Current Conditions -  °F | °C
As of 12:00 PM on Wednesday 28 Jan 2015 (Local Time) from UIBB Reporting Station
Broken Clouds Broken Clouds  
Wind Chill: -13°   Ceiling: 20000
Heat Index:   Visibility: 6mi
Dew Point: -2°   Wind: 11mph
Humidity: 78%   Direction: 230°SW
Pressure: 30.15"   Gusts: NA
Location:  57.14°N, 103.91°E
Report Text: UIBB 280400Z 23005MPS 9999 FEW020CB BKN200 M16/M19 Q1021 NOSIGRMK QFE722/0963 30451034
Loading
Personal Weather Stations






























Interactive Weather Map New forecast layout! Learn more

10-Day Weather Forecast

Advertisements
Track Severe Weather on mobile